sensor_id;sensor_type;location;lat;lon;timestamp;P1;durP1;ratioP1;P2;durP2;ratioP2
60675;SDS011;46716;38.014;-7.874;2022-07-29T00:01:42;5.30;;;1.55;;
60675;SDS011;46716;38.014;-7.874;2022-07-29T00:03:43;4.32;;;1.30;;
60675;SDS011;46716;38.014;-7.874;2022-07-29T00:05:44;3.70;;;1.55;;
60675;SDS011;46716;38.014;-7.874;2022-07-29T00:07:45;5.10;;;1.60;;
60675;SDS011;46716;38.014;-7.874;2022-07-29T00:09:46;5.78;;;1.58;;
60675;SDS011;46716;38.014;-7.874;2022-07-29T00:11:47;6.18;;;1.48;;
60675;SDS011;46716;38.014;-7.874;2022-07-29T00:13:48;5.60;;;2.10;;
60675;SDS011;46716;38.014;-7.874;2022-07-29T00:15:49;3.33;;;1.42;;
60675;SDS011;46716;38.014;-7.874;2022-07-29T00:17:50;2.53;;;1.23;;
60675;SDS011;46716;38.014;-7.874;2022-07-29T00:19:51;4.50;;;1.42;;
60675;SDS011;46716;38.014;-7.874;2022-07-29T00:21:52;3.97;;;1.50;;
60675;SDS011;46716;38.014;-7.874;2022-07-29T00:23:53;4.57;;;1.40;;
60675;SDS011;46716;38.014;-7.874;2022-07-29T00:25:54;4.20;;;1.30;;
60675;SDS011;46716;38.014;-7.874;2022-07-29T00:27:55;3.45;;;1.38;;
60675;SDS011;46716;38.014;-7.874;2022-07-29T00:29:56;4.43;;;1.33;;
60675;SDS011;46716;38.014;-7.874;2022-07-29T00:31:57;4.97;;;1.55;;
60675;SDS011;46716;38.014;-7.874;2022-07-29T00:33:58;4.32;;;1.52;;
60675;SDS011;46716;38.014;-7.874;2022-07-29T00:35:59;4.30;;;1.30;;
60675;SDS011;46716;38.014;-7.874;2022-07-29T00:38:00;5.72;;;1.70;;
60675;SDS011;46716;38.014;-7.874;2022-07-29T00:40:01;6.28;;;1.50;;
60675;SDS011;46716;38.014;-7.874;2022-07-29T00:42:03;4.15;;;1.48;;
60675;SDS011;46716;38.014;-7.874;2022-07-29T00:44:04;5.35;;;1.50;;
60675;SDS011;46716;38.014;-7.874;2022-07-29T00:46:06;5.38;;;1.70;;
60675;SDS011;46716;38.014;-7.874;2022-07-29T00:48:07;3.83;;;1.30;;
60675;SDS011;46716;38.014;-7.874;2022-07-29T00:50:09;3.75;;;1.27;;
60675;SDS011;46716;38.014;-7.874;2022-07-29T00:52:12;3.65;;;1.45;;
60675;SDS011;46716;38.014;-7.874;2022-07-29T00:54:13;4.95;;;1.63;;
60675;SDS011;46716;38.014;-7.874;2022-07-29T00:56:14;4.10;;;1.60;;
60675;SDS011;46716;38.014;-7.874;2022-07-29T00:58:15;3.45;;;1.45;;
60675;SDS011;46716;38.014;-7.874;2022-07-29T01:00:19;3.88;;;1.60;;
60675;SDS011;46716;38.014;-7.874;2022-07-29T01:02:25;4.15;;;1.60;;
60675;SDS011;46716;38.014;-7.874;2022-07-29T01:04:27;3.63;;;1.30;;
60675;SDS011;46716;38.014;-7.874;2022-07-29T01:06:30;5.30;;;1.60;;
60675;SDS011;46716;38.014;-7.874;2022-07-29T01:08:31;3.50;;;1.25;;
60675;SDS011;46716;38.014;-7.874;2022-07-29T01:10:33;3.60;;;1.60;;
60675;SDS011;46716;38.014;-7.874;2022-07-29T01:12:37;4.80;;;1.63;;
60675;SDS011;46716;38.014;-7.874;2022-07-29T01:14:39;4.57;;;1.50;;
60675;SDS011;46716;38.014;-7.874;2022-07-29T01:16:51;2.55;;;1.23;;
60675;SDS011;46716;38.014;-7.874;2022-07-29T01:19:03;3.20;;;1.30;;
60675;SDS011;46716;38.014;-7.874;2022-07-29T01:23:59;3.35;;;1.50;;
60675;SDS011;46716;38.014;-7.874;2022-07-29T01:26:27;3.67;;;1.60;;
60675;SDS011;46716;38.014;-7.874;2022-07-29T01:30:57;4.07;;;1.58;;
60675;SDS011;46716;38.014;-7.874;2022-07-29T01:33:01;4.28;;;1.50;;
60675;SDS011;46716;38.014;-7.874;2022-07-29T01:37:26;5.10;;;1.88;;
60675;SDS011;46716;38.014;-7.874;2022-07-29T01:39:35;3.97;;;1.60;;
60675;SDS011;46716;38.014;-7.874;2022-07-29T01:41:40;4.00;;;1.52;;
60675;SDS011;46716;38.014;-7.874;2022-07-29T01:44:11;3.40;;;1.27;;
60675;SDS011;46716;38.014;-7.874;2022-07-29T01:46:21;4.68;;;1.70;;
60675;SDS011;46716;38.014;-7.874;2022-07-29T01:50:47;3.17;;;1.42;;
60675;SDS011;46716;38.014;-7.874;2022-07-29T01:52:58;3.50;;;1.52;;
60675;SDS011;46716;38.014;-7.874;2022-07-29T01:55:02;5.28;;;1.90;;
60675;SDS011;46716;38.014;-7.874;2022-07-29T01:57:09;7.07;;;1.80;;
60675;SDS011;46716;38.014;-7.874;2022-07-29T01:59:13;5.38;;;1.92;;
60675;SDS011;46716;38.014;-7.874;2022-07-29T02:01:16;5.72;;;2.33;;
60675;SDS011;46716;38.014;-7.874;2022-07-29T02:03:19;6.55;;;2.25;;
60675;SDS011;46716;38.014;-7.874;2022-07-29T02:05:21;5.85;;;2.53;;
60675;SDS011;46716;38.014;-7.874;2022-07-29T02:07:24;4.95;;;2.17;;
60675;SDS011;46716;38.014;-7.874;2022-07-29T02:09:31;7.10;;;3.13;;
60675;SDS011;46716;38.014;-7.874;2022-07-29T02:11:36;6.07;;;2.42;;
60675;SDS011;46716;38.014;-7.874;2022-07-29T02:13:38;5.95;;;2.90;;
60675;SDS011;46716;38.014;-7.874;2022-07-29T02:15:42;7.68;;;2.95;;
60675;SDS011;46716;38.014;-7.874;2022-07-29T02:17:55;10.43;;;3.63;;
60675;SDS011;46716;38.014;-7.874;2022-07-29T02:20:00;7.78;;;3.78;;
60675;SDS011;46716;38.014;-7.874;2022-07-29T02:22:04;8.00;;;3.67;;
60675;SDS011;46716;38.014;-7.874;2022-07-29T02:24:07;9.27;;;3.83;;
60675;SDS011;46716;38.014;-7.874;2022-07-29T02:26:11;9.65;;;4.43;;
60675;SDS011;46716;38.014;-7.874;2022-07-29T02:28:12;8.57;;;3.90;;
60675;SDS011;46716;38.014;-7.874;2022-07-29T02:30:14;10.82;;;4.15;;
60675;SDS011;46716;38.014;-7.874;2022-07-29T02:32:15;13.10;;;4.70;;
60675;SDS011;46716;38.014;-7.874;2022-07-29T02:34:18;9.07;;;5.05;;
60675;SDS011;46716;38.014;-7.874;2022-07-29T02:36:21;12.02;;;4.93;;
60675;SDS011;46716;38.014;-7.874;2022-07-29T02:38:24;11.55;;;4.90;;
60675;SDS011;46716;38.014;-7.874;2022-07-29T02:40:45;9.90;;;4.93;;
60675;SDS011;46716;38.014;-7.874;2022-07-29T02:42:48;9.48;;;4.93;;
60675;SDS011;46716;38.014;-7.874;2022-07-29T02:44:50;11.75;;;5.18;;
60675;SDS011;46716;38.014;-7.874;2022-07-29T02:46:53;12.63;;;5.38;;
60675;SDS011;46716;38.014;-7.874;2022-07-29T02:53:23;9.88;;;4.75;;
60675;SDS011;46716;38.014;-7.874;2022-07-29T02:58:03;10.85;;;5.28;;
60675;SDS011;46716;38.014;-7.874;2022-07-29T03:00:08;9.80;;;5.45;;
60675;SDS011;46716;38.014;-7.874;2022-07-29T03:04:11;9.30;;;4.97;;
60675;SDS011;46716;38.014;-7.874;2022-07-29T03:06:13;10.18;;;5.32;;
60675;SDS011;46716;38.014;-7.874;2022-07-29T03:08:17;12.93;;;6.18;;
60675;SDS011;46716;38.014;-7.874;2022-07-29T03:10:18;11.70;;;5.28;;
60675;SDS011;46716;38.014;-7.874;2022-07-29T03:12:20;8.60;;;4.75;;
60675;SDS011;46716;38.014;-7.874;2022-07-29T03:14:22;11.38;;;4.82;;
60675;SDS011;46716;38.014;-7.874;2022-07-29T03:16:24;11.48;;;5.00;;
60675;SDS011;46716;38.014;-7.874;2022-07-29T03:18:25;10.00;;;4.95;;
60675;SDS011;46716;38.014;-7.874;2022-07-29T03:20:27;14.95;;;5.00;;
60675;SDS011;46716;38.014;-7.874;2022-07-29T03:22:28;9.15;;;4.55;;
60675;SDS011;46716;38.014;-7.874;2022-07-29T03:24:31;11.52;;;4.97;;
60675;SDS011;46716;38.014;-7.874;2022-07-29T03:26:33;9.38;;;4.82;;
60675;SDS011;46716;38.014;-7.874;2022-07-29T03:28:34;10.52;;;4.45;;
60675;SDS011;46716;38.014;-7.874;2022-07-29T03:30:35;8.55;;;4.00;;
60675;SDS011;46716;38.014;-7.874;2022-07-29T03:32:36;12.15;;;4.50;;
60675;SDS011;46716;38.014;-7.874;2022-07-29T03:34:37;7.43;;;3.90;;
60675;SDS011;46716;38.014;-7.874;2022-07-29T03:36:38;9.02;;;4.75;;
60675;SDS011;46716;38.014;-7.874;2022-07-29T03:38:39;9.32;;;4.32;;
60675;SDS011;46716;38.014;-7.874;2022-07-29T03:40:45;9.88;;;4.57;;
60675;SDS011;46716;38.014;-7.874;2022-07-29T03:42:51;10.52;;;5.00;;
60675;SDS011;46716;38.014;-7.874;2022-07-29T03:44:55;10.60;;;4.35;;
60675;SDS011;46716;38.014;-7.874;2022-07-29T03:46:57;7.65;;;3.95;;
60675;SDS011;46716;38.014;-7.874;2022-07-29T03:49:03;9.10;;;4.30;;
60675;SDS011;46716;38.014;-7.874;2022-07-29T03:51:04;10.68;;;4.55;;
60675;SDS011;46716;38.014;-7.874;2022-07-29T03:53:06;10.57;;;4.37;;
60675;SDS011;46716;38.014;-7.874;2022-07-29T03:55:08;9.30;;;4.20;;
60675;SDS011;46716;38.014;-7.874;2022-07-29T03:57:10;9.25;;;4.25;;
60675;SDS011;46716;38.014;-7.874;2022-07-29T03:59:12;9.77;;;4.63;;
60675;SDS011;46716;38.014;-7.874;2022-07-29T04:01:14;8.90;;;3.97;;
60675;SDS011;46716;38.014;-7.874;2022-07-29T04:03:17;9.63;;;4.68;;
60675;SDS011;46716;38.014;-7.874;2022-07-29T04:05:19;9.55;;;4.40;;
60675;SDS011;46716;38.014;-7.874;2022-07-29T04:07:20;12.10;;;4.82;;
60675;SDS011;46716;38.014;-7.874;2022-07-29T04:09:21;9.23;;;4.50;;
60675;SDS011;46716;38.014;-7.874;2022-07-29T04:11:22;9.50;;;4.82;;
60675;SDS011;46716;38.014;-7.874;2022-07-29T04:13:23;12.05;;;4.60;;
60675;SDS011;46716;38.014;-7.874;2022-07-29T04:15:24;10.45;;;4.50;;
60675;SDS011;46716;38.014;-7.874;2022-07-29T04:17:25;11.82;;;4.57;;
60675;SDS011;46716;38.014;-7.874;2022-07-29T04:19:26;10.07;;;4.53;;
60675;SDS011;46716;38.014;-7.874;2022-07-29T04:21:27;10.27;;;5.20;;
60675;SDS011;46716;38.014;-7.874;2022-07-29T04:23:29;10.80;;;5.07;;
60675;SDS011;46716;38.014;-7.874;2022-07-29T04:25:36;11.65;;;5.90;;
60675;SDS011;46716;38.014;-7.874;2022-07-29T04:27:37;9.45;;;5.07;;
60675;SDS011;46716;38.014;-7.874;2022-07-29T04:29:58;12.60;;;5.68;;
60675;SDS011;46716;38.014;-7.874;2022-07-29T04:32:00;11.85;;;5.22;;
60675;SDS011;46716;38.014;-7.874;2022-07-29T04:34:00;8.90;;;4.57;;
60675;SDS011;46716;38.014;-7.874;2022-07-29T04:36:01;10.43;;;4.88;;
60675;SDS011;46716;38.014;-7.874;2022-07-29T04:38:03;9.88;;;5.15;;
60675;SDS011;46716;38.014;-7.874;2022-07-29T04:42:06;13.25;;;5.35;;
60675;SDS011;46716;38.014;-7.874;2022-07-29T04:44:08;12.13;;;4.95;;
60675;SDS011;46716;38.014;-7.874;2022-07-29T04:46:08;12.55;;;4.68;;
60675;SDS011;46716;38.014;-7.874;2022-07-29T04:48:10;9.35;;;4.70;;
60675;SDS011;46716;38.014;-7.874;2022-07-29T04:50:11;8.98;;;4.57;;
60675;SDS011;46716;38.014;-7.874;2022-07-29T04:52:15;9.60;;;4.53;;
60675;SDS011;46716;38.014;-7.874;2022-07-29T04:54:16;12.68;;;5.22;;
60675;SDS011;46716;38.014;-7.874;2022-07-29T04:56:17;9.98;;;4.53;;
60675;SDS011;46716;38.014;-7.874;2022-07-29T04:58:17;10.80;;;5.22;;
60675;SDS011;46716;38.014;-7.874;2022-07-29T05:00:18;13.35;;;4.88;;
60675;SDS011;46716;38.014;-7.874;2022-07-29T05:02:19;10.93;;;5.07;;
60675;SDS011;46716;38.014;-7.874;2022-07-29T05:04:21;11.55;;;5.15;;
60675;SDS011;46716;38.014;-7.874;2022-07-29T05:06:22;10.00;;;4.78;;
60675;SDS011;46716;38.014;-7.874;2022-07-29T05:08:22;12.02;;;5.32;;
60675;SDS011;46716;38.014;-7.874;2022-07-29T05:10:23;10.80;;;5.05;;
60675;SDS011;46716;38.014;-7.874;2022-07-29T05:12:25;9.93;;;5.13;;
60675;SDS011;46716;38.014;-7.874;2022-07-29T05:14:26;11.45;;;4.97;;
60675;SDS011;46716;38.014;-7.874;2022-07-29T05:16:27;10.70;;;5.13;;
60675;SDS011;46716;38.014;-7.874;2022-07-29T05:18:28;10.30;;;5.00;;
60675;SDS011;46716;38.014;-7.874;2022-07-29T05:20:29;10.60;;;5.07;;
60675;SDS011;46716;38.014;-7.874;2022-07-29T05:22:31;9.68;;;4.97;;
60675;SDS011;46716;38.014;-7.874;2022-07-29T05:24:31;10.93;;;5.10;;
60675;SDS011;46716;38.014;-7.874;2022-07-29T05:26:32;13.43;;;5.85;;
60675;SDS011;46716;38.014;-7.874;2022-07-29T05:28:34;12.57;;;5.93;;
60675;SDS011;46716;38.014;-7.874;2022-07-29T05:30:38;11.43;;;5.85;;
60675;SDS011;46716;38.014;-7.874;2022-07-29T05:32:39;11.93;;;5.25;;
60675;SDS011;46716;38.014;-7.874;2022-07-29T05:34:40;12.70;;;5.65;;
60675;SDS011;46716;38.014;-7.874;2022-07-29T05:36:41;12.50;;;5.53;;
60675;SDS011;46716;38.014;-7.874;2022-07-29T05:38:42;13.35;;;5.90;;
60675;SDS011;46716;38.014;-7.874;2022-07-29T05:40:43;14.32;;;5.90;;
60675;SDS011;46716;38.014;-7.874;2022-07-29T05:42:44;14.48;;;5.20;;
60675;SDS011;46716;38.014;-7.874;2022-07-29T05:44:45;14.60;;;5.35;;
60675;SDS011;46716;38.014;-7.874;2022-07-29T05:46:47;15.70;;;5.72;;
60675;SDS011;46716;38.014;-7.874;2022-07-29T05:48:48;12.02;;;6.75;;
60675;SDS011;46716;38.014;-7.874;2022-07-29T05:50:49;10.52;;;4.95;;
60675;SDS011;46716;38.014;-7.874;2022-07-29T05:52:51;10.60;;;5.53;;
60675;SDS011;46716;38.014;-7.874;2022-07-29T05:54:52;15.05;;;5.07;;
60675;SDS011;46716;38.014;-7.874;2022-07-29T05:56:53;9.90;;;4.97;;
60675;SDS011;46716;38.014;-7.874;2022-07-29T05:58:54;11.98;;;5.20;;
60675;SDS011;46716;38.014;-7.874;2022-07-29T06:00:55;12.82;;;5.70;;
60675;SDS011;46716;38.014;-7.874;2022-07-29T06:02:59;14.43;;;5.57;;
60675;SDS011;46716;38.014;-7.874;2022-07-29T06:05:00;17.55;;;6.00;;
60675;SDS011;46716;38.014;-7.874;2022-07-29T06:07:01;12.10;;;5.32;;
60675;SDS011;46716;38.014;-7.874;2022-07-29T06:09:02;9.73;;;5.03;;
60675;SDS011;46716;38.014;-7.874;2022-07-29T06:11:04;11.23;;;5.68;;
60675;SDS011;46716;38.014;-7.874;2022-07-29T06:13:05;13.32;;;5.40;;
60675;SDS011;46716;38.014;-7.874;2022-07-29T06:15:06;9.70;;;4.93;;
60675;SDS011;46716;38.014;-7.874;2022-07-29T06:17:07;10.82;;;4.35;;
60675;SDS011;46716;38.014;-7.874;2022-07-29T06:19:08;12.70;;;5.32;;
60675;SDS011;46716;38.014;-7.874;2022-07-29T06:21:09;10.77;;;5.40;;
60675;SDS011;46716;38.014;-7.874;2022-07-29T06:23:10;12.38;;;5.05;;
60675;SDS011;46716;38.014;-7.874;2022-07-29T06:25:11;13.52;;;4.82;;
60675;SDS011;46716;38.014;-7.874;2022-07-29T06:27:12;9.68;;;4.53;;
60675;SDS011;46716;38.014;-7.874;2022-07-29T06:29:13;10.45;;;5.40;;
60675;SDS011;46716;38.014;-7.874;2022-07-29T06:31:14;13.60;;;4.95;;
60675;SDS011;46716;38.014;-7.874;2022-07-29T06:33:18;17.35;;;6.63;;
60675;SDS011;46716;38.014;-7.874;2022-07-29T06:35:19;14.85;;;4.70;;
60675;SDS011;46716;38.014;-7.874;2022-07-29T06:37:20;11.30;;;5.30;;
60675;SDS011;46716;38.014;-7.874;2022-07-29T06:39:22;11.35;;;4.80;;
60675;SDS011;46716;38.014;-7.874;2022-07-29T06:41:23;13.32;;;5.68;;
60675;SDS011;46716;38.014;-7.874;2022-07-29T06:43:24;16.92;;;5.47;;
60675;SDS011;46716;38.014;-7.874;2022-07-29T06:45:25;13.25;;;5.50;;
60675;SDS011;46716;38.014;-7.874;2022-07-29T06:47:25;13.88;;;4.80;;
60675;SDS011;46716;38.014;-7.874;2022-07-29T06:49:26;9.90;;;5.03;;
60675;SDS011;46716;38.014;-7.874;2022-07-29T06:51:28;11.13;;;5.00;;
60675;SDS011;46716;38.014;-7.874;2022-07-29T06:53:29;10.18;;;5.13;;
60675;SDS011;46716;38.014;-7.874;2022-07-29T06:55:30;8.50;;;4.22;;
60675;SDS011;46716;38.014;-7.874;2022-07-29T06:57:31;14.02;;;4.47;;
60675;SDS011;46716;38.014;-7.874;2022-07-29T06:59:32;8.45;;;4.38;;
60675;SDS011;46716;38.014;-7.874;2022-07-29T07:01:33;7.25;;;3.67;;
60675;SDS011;46716;38.014;-7.874;2022-07-29T07:03:36;9.40;;;4.00;;
60675;SDS011;46716;38.014;-7.874;2022-07-29T07:05:37;7.20;;;3.47;;
60675;SDS011;46716;38.014;-7.874;2022-07-29T07:07:38;6.03;;;2.90;;
60675;SDS011;46716;38.014;-7.874;2022-07-29T07:09:39;9.02;;;3.42;;
60675;SDS011;46716;38.014;-7.874;2022-07-29T07:11:40;6.93;;;3.03;;
60675;SDS011;46716;38.014;-7.874;2022-07-29T07:13:41;5.25;;;2.60;;
60675;SDS011;46716;38.014;-7.874;2022-07-29T07:15:42;7.43;;;2.50;;
60675;SDS011;46716;38.014;-7.874;2022-07-29T07:17:43;4.93;;;2.10;;
60675;SDS011;46716;38.014;-7.874;2022-07-29T07:19:44;5.93;;;2.72;;
60675;SDS011;46716;38.014;-7.874;2022-07-29T07:21:45;8.57;;;2.45;;
60675;SDS011;46716;38.014;-7.874;2022-07-29T07:23:46;6.53;;;2.45;;
60675;SDS011;46716;38.014;-7.874;2022-07-29T07:25:47;7.88;;;2.95;;
60675;SDS011;46716;38.014;-7.874;2022-07-29T07:27:48;5.72;;;2.78;;
60675;SDS011;46716;38.014;-7.874;2022-07-29T07:29:49;6.30;;;2.80;;
60675;SDS011;46716;38.014;-7.874;2022-07-29T07:31:49;6.68;;;3.25;;
60675;SDS011;46716;38.014;-7.874;2022-07-29T07:33:50;6.22;;;3.17;;
60675;SDS011;46716;38.014;-7.874;2022-07-29T07:35:52;9.95;;;3.05;;
60675;SDS011;46716;38.014;-7.874;2022-07-29T07:37:53;11.45;;;3.58;;
60675;SDS011;46716;38.014;-7.874;2022-07-29T07:41:56;6.78;;;3.00;;
60675;SDS011;46716;38.014;-7.874;2022-07-29T07:43:57;7.07;;;2.60;;
60675;SDS011;46716;38.014;-7.874;2022-07-29T07:45:58;7.65;;;3.00;;
60675;SDS011;46716;38.014;-7.874;2022-07-29T07:47:59;5.07;;;2.55;;
60675;SDS011;46716;38.014;-7.874;2022-07-29T07:49:59;8.73;;;2.83;;
60675;SDS011;46716;38.014;-7.874;2022-07-29T07:52:00;8.38;;;3.03;;
60675;SDS011;46716;38.014;-7.874;2022-07-29T07:54:01;6.22;;;3.20;;
60675;SDS011;46716;38.014;-7.874;2022-07-29T07:56:02;5.05;;;2.47;;
60675;SDS011;46716;38.014;-7.874;2022-07-29T08:00:05;4.88;;;2.03;;
60675;SDS011;46716;38.014;-7.874;2022-07-29T08:02:12;10.05;;;2.50;;
60675;SDS011;46716;38.014;-7.874;2022-07-29T08:04:13;4.90;;;2.25;;
60675;SDS011;46716;38.014;-7.874;2022-07-29T08:06:14;5.65;;;1.98;;
60675;SDS011;46716;38.014;-7.874;2022-07-29T08:08:15;4.80;;;1.75;;
60675;SDS011;46716;38.014;-7.874;2022-07-29T08:10:16;3.95;;;1.83;;
60675;SDS011;46716;38.014;-7.874;2022-07-29T08:12:37;3.38;;;1.60;;
60675;SDS011;46716;38.014;-7.874;2022-07-29T08:14:38;5.13;;;1.60;;
60675;SDS011;46716;38.014;-7.874;2022-07-29T08:16:39;4.55;;;2.00;;
60675;SDS011;46716;38.014;-7.874;2022-07-29T08:18:43;5.10;;;1.45;;
60675;SDS011;46716;38.014;-7.874;2022-07-29T08:20:45;3.90;;;1.90;;
60675;SDS011;46716;38.014;-7.874;2022-07-29T08:22:46;3.45;;;1.38;;
60675;SDS011;46716;38.014;-7.874;2022-07-29T08:24:47;5.28;;;1.60;;
60675;SDS011;46716;38.014;-7.874;2022-07-29T08:26:53;5.43;;;1.52;;
60675;SDS011;46716;38.014;-7.874;2022-07-29T08:28:54;4.57;;;1.30;;
60675;SDS011;46716;38.014;-7.874;2022-07-29T08:30:55;4.63;;;1.50;;
60675;SDS011;46716;38.014;-7.874;2022-07-29T08:32:56;4.47;;;1.65;;
60675;SDS011;46716;38.014;-7.874;2022-07-29T08:34:57;2.97;;;1.70;;
60675;SDS011;46716;38.014;-7.874;2022-07-29T08:36:59;3.47;;;1.48;;
60675;SDS011;46716;38.014;-7.874;2022-07-29T08:39:01;4.13;;;1.52;;
60675;SDS011;46716;38.014;-7.874;2022-07-29T08:41:03;3.42;;;1.35;;
60675;SDS011;46716;38.014;-7.874;2022-07-29T08:43:07;4.82;;;1.30;;
60675;SDS011;46716;38.014;-7.874;2022-07-29T08:45:09;4.18;;;1.45;;
60675;SDS011;46716;38.014;-7.874;2022-07-29T08:47:10;3.35;;;1.67;;
60675;SDS011;46716;38.014;-7.874;2022-07-29T08:49:15;3.60;;;1.50;;
60675;SDS011;46716;38.014;-7.874;2022-07-29T08:51:20;4.43;;;1.70;;
60675;SDS011;46716;38.014;-7.874;2022-07-29T08:53:22;3.70;;;1.60;;
60675;SDS011;46716;38.014;-7.874;2022-07-29T08:55:26;3.72;;;1.63;;
60675;SDS011;46716;38.014;-7.874;2022-07-29T08:57:28;3.33;;;1.40;;
60675;SDS011;46716;38.014;-7.874;2022-07-29T08:59:29;4.28;;;1.70;;
60675;SDS011;46716;38.014;-7.874;2022-07-29T09:01:34;6.85;;;1.70;;
60675;SDS011;46716;38.014;-7.874;2022-07-29T09:03:39;3.60;;;1.83;;
60675;SDS011;46716;38.014;-7.874;2022-07-29T09:05:41;3.95;;;1.75;;
60675;SDS011;46716;38.014;-7.874;2022-07-29T09:07:42;2.85;;;1.38;;
60675;SDS011;46716;38.014;-7.874;2022-07-29T09:11:45;3.08;;;1.50;;
60675;SDS011;46716;38.014;-7.874;2022-07-29T09:13:47;3.00;;;1.60;;
60675;SDS011;46716;38.014;-7.874;2022-07-29T09:15:49;5.57;;;1.77;;
60675;SDS011;46716;38.014;-7.874;2022-07-29T09:17:50;2.10;;;1.17;;
60675;SDS011;46716;38.014;-7.874;2022-07-29T09:19:51;4.95;;;1.50;;
60675;SDS011;46716;38.014;-7.874;2022-07-29T09:21:53;6.15;;;1.63;;
60675;SDS011;46716;38.014;-7.874;2022-07-29T09:24:01;2.97;;;1.38;;
60675;SDS011;46716;38.014;-7.874;2022-07-29T09:26:13;2.40;;;1.40;;
60675;SDS011;46716;38.014;-7.874;2022-07-29T09:28:15;4.10;;;1.55;;
60675;SDS011;46716;38.014;-7.874;2022-07-29T09:30:16;2.85;;;1.20;;
60675;SDS011;46716;38.014;-7.874;2022-07-29T09:32:17;2.83;;;1.40;;
60675;SDS011;46716;38.014;-7.874;2022-07-29T09:34:26;3.10;;;1.35;;
60675;SDS011;46716;38.014;-7.874;2022-07-29T09:36:30;4.72;;;1.60;;
60675;SDS011;46716;38.014;-7.874;2022-07-29T09:38:31;4.78;;;1.58;;
60675;SDS011;46716;38.014;-7.874;2022-07-29T09:40:33;3.78;;;1.65;;
60675;SDS011;46716;38.014;-7.874;2022-07-29T09:42:34;3.40;;;1.60;;
60675;SDS011;46716;38.014;-7.874;2022-07-29T09:44:42;2.97;;;1.27;;
60675;SDS011;46716;38.014;-7.874;2022-07-29T09:47:01;3.83;;;1.60;;
60675;SDS011;46716;38.014;-7.874;2022-07-29T09:49:10;4.10;;;1.63;;
60675;SDS011;46716;38.014;-7.874;2022-07-29T09:51:17;6.10;;;1.40;;
60675;SDS011;46716;38.014;-7.874;2022-07-29T09:53:35;5.05;;;1.70;;
60675;SDS011;46716;38.014;-7.874;2022-07-29T09:55:48;3.88;;;1.50;;
60675;SDS011;46716;38.014;-7.874;2022-07-29T09:57:50;4.32;;;1.40;;
60675;SDS011;46716;38.014;-7.874;2022-07-29T09:59:57;3.55;;;1.30;;
60675;SDS011;46716;38.014;-7.874;2022-07-29T10:02:00;5.07;;;1.50;;
60675;SDS011;46716;38.014;-7.874;2022-07-29T10:04:01;4.85;;;1.55;;
60675;SDS011;46716;38.014;-7.874;2022-07-29T10:08:08;5.63;;;1.63;;
60675;SDS011;46716;38.014;-7.874;2022-07-29T10:10:10;7.97;;;2.03;;
60675;SDS011;46716;38.014;-7.874;2022-07-29T10:12:12;4.13;;;1.50;;
60675;SDS011;46716;38.014;-7.874;2022-07-29T10:14:14;2.58;;;1.30;;
60675;SDS011;46716;38.014;-7.874;2022-07-29T10:16:16;4.07;;;1.50;;
60675;SDS011;46716;38.014;-7.874;2022-07-29T10:18:17;2.05;;;1.40;;
60675;SDS011;46716;38.014;-7.874;2022-07-29T10:20:20;5.50;;;1.60;;
60675;SDS011;46716;38.014;-7.874;2022-07-29T10:22:22;4.53;;;1.50;;
60675;SDS011;46716;38.014;-7.874;2022-07-29T10:24:27;4.63;;;1.73;;
60675;SDS011;46716;38.014;-7.874;2022-07-29T10:26:29;6.82;;;1.60;;
60675;SDS011;46716;38.014;-7.874;2022-07-29T10:28:31;6.65;;;1.55;;
60675;SDS011;46716;38.014;-7.874;2022-07-29T10:30:32;2.90;;;1.23;;
60675;SDS011;46716;38.014;-7.874;2022-07-29T10:32:42;3.80;;;1.60;;
60675;SDS011;46716;38.014;-7.874;2022-07-29T10:35:01;3.42;;;1.40;;
60675;SDS011;46716;38.014;-7.874;2022-07-29T10:40:15;4.80;;;1.80;;
60675;SDS011;46716;38.014;-7.874;2022-07-29T10:42:44;6.93;;;1.33;;
60675;SDS011;46716;38.014;-7.874;2022-07-29T10:44:45;3.60;;;1.83;;
60675;SDS011;46716;38.014;-7.874;2022-07-29T10:46:47;4.60;;;1.50;;
60675;SDS011;46716;38.014;-7.874;2022-07-29T10:51:09;5.95;;;1.48;;
60675;SDS011;46716;38.014;-7.874;2022-07-29T10:53:10;3.33;;;1.50;;
60675;SDS011;46716;38.014;-7.874;2022-07-29T10:55:30;5.67;;;1.57;;
60675;SDS011;46716;38.014;-7.874;2022-07-29T10:57:36;3.33;;;1.67;;
60675;SDS011;46716;38.014;-7.874;2022-07-29T10:59:41;3.45;;;1.55;;
60675;SDS011;46716;38.014;-7.874;2022-07-29T11:01:44;3.65;;;1.30;;
60675;SDS011;46716;38.014;-7.874;2022-07-29T11:03:47;5.32;;;1.50;;
60675;SDS011;46716;38.014;-7.874;2022-07-29T11:05:53;5.15;;;1.50;;
60675;SDS011;46716;38.014;-7.874;2022-07-29T11:16:59;2.90;;;1.38;;
60675;SDS011;46716;38.014;-7.874;2022-07-29T11:21:34;4.00;;;1.60;;
60675;SDS011;46716;38.014;-7.874;2022-07-29T11:23:36;3.58;;;1.42;;
60675;SDS011;46716;38.014;-7.874;2022-07-29T11:25:38;3.97;;;1.50;;
60675;SDS011;46716;38.014;-7.874;2022-07-29T11:27:39;3.50;;;1.63;;
60675;SDS011;46716;38.014;-7.874;2022-07-29T11:29:47;6.45;;;1.42;;
60675;SDS011;46716;38.014;-7.874;2022-07-29T11:32:13;5.35;;;1.77;;
60675;SDS011;46716;38.014;-7.874;2022-07-29T11:34:17;7.00;;;1.55;;
60675;SDS011;46716;38.014;-7.874;2022-07-29T11:36:20;2.90;;;1.35;;
60675;SDS011;46716;38.014;-7.874;2022-07-29T11:38:24;3.27;;;1.40;;
60675;SDS011;46716;38.014;-7.874;2022-07-29T11:40:29;4.13;;;1.40;;
60675;SDS011;46716;38.014;-7.874;2022-07-29T11:46:55;9.35;;;1.48;;
60675;SDS011;46716;38.014;-7.874;2022-07-29T11:48:56;3.88;;;1.38;;
60675;SDS011;46716;38.014;-7.874;2022-07-29T11:50:58;4.10;;;1.70;;
60675;SDS011;46716;38.014;-7.874;2022-07-29T11:52:59;6.28;;;1.88;;
60675;SDS011;46716;38.014;-7.874;2022-07-29T11:55:03;6.55;;;1.60;;
60675;SDS011;46716;38.014;-7.874;2022-07-29T11:57:06;3.30;;;1.48;;
60675;SDS011;46716;38.014;-7.874;2022-07-29T11:59:07;3.05;;;1.42;;
60675;SDS011;46716;38.014;-7.874;2022-07-29T12:01:15;3.28;;;1.60;;
60675;SDS011;46716;38.014;-7.874;2022-07-29T12:03:24;5.85;;;1.63;;
60675;SDS011;46716;38.014;-7.874;2022-07-29T12:05:30;2.50;;;1.40;;
60675;SDS011;46716;38.014;-7.874;2022-07-29T12:07:36;4.15;;;1.35;;
60675;SDS011;46716;38.014;-7.874;2022-07-29T12:09:38;6.13;;;1.55;;
60675;SDS011;46716;38.014;-7.874;2022-07-29T12:11:39;2.78;;;1.33;;
60675;SDS011;46716;38.014;-7.874;2022-07-29T12:13:40;2.77;;;1.40;;
60675;SDS011;46716;38.014;-7.874;2022-07-29T12:15:41;4.03;;;1.70;;
60675;SDS011;46716;38.014;-7.874;2022-07-29T12:17:44;3.58;;;1.60;;
60675;SDS011;46716;38.014;-7.874;2022-07-29T12:19:45;4.38;;;1.50;;
60675;SDS011;46716;38.014;-7.874;2022-07-29T12:21:46;4.13;;;1.37;;
60675;SDS011;46716;38.014;-7.874;2022-07-29T12:23:52;3.67;;;1.40;;
60675;SDS011;46716;38.014;-7.874;2022-07-29T12:25:57;4.40;;;1.60;;
60675;SDS011;46716;38.014;-7.874;2022-07-29T12:28:06;2.50;;;1.25;;
60675;SDS011;46716;38.014;-7.874;2022-07-29T12:30:09;3.00;;;1.25;;
60675;SDS011;46716;38.014;-7.874;2022-07-29T12:32:12;3.13;;;1.33;;
60675;SDS011;46716;38.014;-7.874;2022-07-29T12:34:13;4.00;;;1.47;;
60675;SDS011;46716;38.014;-7.874;2022-07-29T12:36:16;3.30;;;1.35;;
60675;SDS011;46716;38.014;-7.874;2022-07-29T12:38:17;3.92;;;1.58;;
60675;SDS011;46716;38.014;-7.874;2022-07-29T12:40:18;4.45;;;1.50;;
60675;SDS011;46716;38.014;-7.874;2022-07-29T12:42:21;5.85;;;1.48;;
60675;SDS011;46716;38.014;-7.874;2022-07-29T12:44:22;3.90;;;1.95;;
60675;SDS011;46716;38.014;-7.874;2022-07-29T12:46:24;2.55;;;1.55;;
60675;SDS011;46716;38.014;-7.874;2022-07-29T12:48:38;3.85;;;1.40;;
60675;SDS011;46716;38.014;-7.874;2022-07-29T12:50:57;3.67;;;1.67;;
60675;SDS011;46716;38.014;-7.874;2022-07-29T12:53:10;6.18;;;1.60;;
60675;SDS011;46716;38.014;-7.874;2022-07-29T12:55:12;2.58;;;1.30;;
60675;SDS011;46716;38.014;-7.874;2022-07-29T12:57:13;4.70;;;1.10;;
60675;SDS011;46716;38.014;-7.874;2022-07-29T12:59:18;3.33;;;1.50;;